Time;durP1;ratioP1;P1;durP2;ratioP2;P2;SDS_P1;SDS_P2;PMS_P1;PMS_P2;Temp;Humidity;BMP_temperature;BMP_pressure;BME280_temperature;BME280_humidity;BME280_pressure;Samples;Min_cycle;Max_cycle;Signal;HPM_P1;HPM_P2
2023/04/04 00:01:33;;;;;;;;;;;;;;;;;;5044780;28;3246;-64
2023/04/04 00:03:59;;;;;;;;;;;;;;;;;;5036551;28;4415;-64
2023/04/04 00:06:24;;;;;;;;;;;;;;;;;;5035920;28;4427;-64
2023/04/04 00:08:49;;;;;;;;;;;;;;;;;;5049960;28;5226;-64
2023/04/04 00:11:15;;;;;;;;;;;;;;;;;;5049855;28;4839;-64
2023/04/04 00:13:40;;;;;;;;;;;;;;;;;;5049650;28;1121;-64
2023/04/04 00:16:05;;;;;;;;;;;;;;;;;;5043116;28;4659;-64
2023/04/04 00:18:31;;;;;;;;;;;;;;;;;;5032734;28;5111;-64
2023/04/04 00:20:56;;;;;;;;;;;;;;;;;;5047826;28;4669;-64
2023/04/04 00:23:22;;;;;;;;;;;;;;;;;;5050166;28;5143;-64
2023/04/04 00:25:51;;;;;;;;;;;;;;;;;;5050285;28;2958;-64
2023/04/04 00:28:19;;;;;;;;;;;;;;;;;;5050012;28;4421;-64
2023/04/04 00:30:45;;;;;;;;;;;;;;;;;;5050130;28;4965;-64
2023/04/04 00:33:11;;;;;;;;;;;;;;;;;;5050004;28;4639;-64
2023/04/04 00:35:36;;;;;;;;;;;;;;;;;;5045204;28;4997;-65
2023/04/04 00:38:01;;;;;;;;;;;;;;;;;;5045265;28;3121;-64
2023/04/04 00:40:27;;;;;;;;;;;;;;;;;;5049377;28;5117;-65
2023/04/04 00:42:52;;;;;;;;;;;;;;;;;;5049691;28;4565;-64
2023/04/04 00:45:17;;;;;;;;;;;;;;;;;;5081732;28;5230;-64
2023/04/04 00:47:43;;;;;;;;;;;;;;;;;;5049663;28;4501;-64
2023/04/04 00:50:08;;;;;;;;;;;;;;;;;;5081498;28;6035;-64
2023/04/04 00:52:33;;;;;;;;;;;;;;;;;;5050214;28;1793;-64
2023/04/04 00:54:59;;;;;;;;;;;;;;;;;;5049355;28;4645;-64
2023/04/04 00:57:24;;;;;;;;;;;;;;;;;;5049088;28;4620;-64
2023/04/04 00:59:49;;;;;;;;;;;;;;;;;;5049660;28;4977;-64
2023/04/04 01:02:15;;;;;;;;;;;;;;;;;;5048091;28;4695;-64
2023/04/04 01:04:40;;;;;;;;;;;;;;;;;;5048929;28;1280;-64
2023/04/04 01:07:05;;;;;;;;;;;;;;;;;;5043509;28;4481;-64
2023/04/04 01:09:31;;;;;;;;;;;;;;;;;;5049009;28;4503;-64
2023/04/04 01:11:56;;;;;;;;;;;;;;;;;;5064390;28;4443;-64
2023/04/04 01:14:21;;;;;;;;;;;;;;;;;;5036728;28;4481;-64
2023/04/04 01:16:47;;;;;;;;;;;;;;;;;;5044809;28;1113;-64
2023/04/04 01:19:13;;;;;;;;;;;;;;;;;;5047985;28;4913;-64
2023/04/04 01:21:38;;;;;;;;;;;;;;;;;;5049052;28;4568;-64
2023/04/04 01:24:04;;;;;;;;;;;;;;;;;;5081423;28;4809;-64
2023/04/04 01:26:29;;;;;;;;;;;;;;;;;;5052904;28;4616;-64
2023/04/04 01:28:55;;;;;;;;;;;;;;;;;;5054161;28;2641;-64
2023/04/04 01:31:29;;;;;;;;;;;;;;;;;;5051749;28;4940;-64
2023/04/04 01:33:59;;;;;;;;;;;;;;;;;;5044511;28;4700;-64
2023/04/04 01:37:02;;;;;;;;;;;;;;;;;;5033445;28;4500;-64
2023/04/04 01:39:31;;;;;;;;;;;;;;;;;;4990662;28;5138;-64
2023/04/04 01:41:56;;;;;;;;;;;;;;;;;;4986291;28;4539;-64
2023/04/04 01:44:22;;;;;;;;;;;;;;;;;;5004486;28;4455;-64
2023/04/04 01:46:57;;;;;;;;;;;;;;;;;;5053268;28;1904;-65
2023/04/04 01:49:22;;;;;;;;;;;;;;;;;;5050811;28;4568;-64
2023/04/04 01:51:49;;;;;;;;;;;;;;;;;;5043686;28;4656;-65
2023/04/04 01:54:15;;;;;;;;;;;;;;;;;;5050348;28;4907;-64
2023/04/04 01:56:41;;;;;;;;;;;;;;;;;;5044118;28;5463;-64
2023/04/04 01:59:06;;;;;;;;;;;;;;;;;;5050870;28;4986;-64
2023/04/04 02:01:32;;;;;;;;;;;;;;;;;;5050148;28;3258;-64
2023/04/04 02:03:57;;;;;;;;;;;;;;;;;;5046813;28;4513;-64
2023/04/04 02:06:23;;;;;;;;;;;;;;;;;;5041386;28;4530;-64
2023/04/04 02:08:48;;;;;;;;;;;;;;;;;;5044872;28;4564;-64
2023/04/04 02:11:13;;;;;;;;;;;;;;;;;;5047242;28;4774;-64
2023/04/04 02:13:43;;;;;;;;;;;;;;;;;;5049011;28;3221;-64
2023/04/04 02:16:08;;;;;;;;;;;;;;;;;;5035660;28;4642;-64
2023/04/04 02:18:35;;;;;;;;;;;;;;;;;;5050137;28;4514;-64
2023/04/04 02:21:00;;;;;;;;;;;;;;;;;;5049253;28;5151;-64
2023/04/04 02:23:25;;;;;;;;;;;;;;;;;;5045396;28;4959;-64
2023/04/04 02:25:50;;;;;;;;;;;;;;;;;;5049646;28;3266;-64
2023/04/04 02:28:16;;;;;;;;;;;;;;;;;;5048374;28;4631;-64
2023/04/04 02:30:41;;;;;;;;;;;;;;;;;;5042462;28;5302;-64
2023/04/04 02:33:07;;;;;;;;;;;;;;;;;;5046007;28;5054;-64
2023/04/04 02:35:32;;;;;;;;;;;;;;;;;;5046616;28;4710;-64
2023/04/04 02:37:57;;;;;;;;;;;;;;;;;;5049751;28;3332;-64
2023/04/04 02:40:22;;;;;;;;;;;;;;;;;;5048141;28;4595;-64
2023/04/04 02:42:48;;;;;;;;;;;;;;;;;;5046263;28;4482;-64
2023/04/04 02:45:13;;;;;;;;;;;;;;;;;;5049231;28;4955;-64
2023/04/04 02:47:38;;;;;;;;;;;;;;;;;;5047656;28;4526;-64
2023/04/04 02:50:04;;;;;;;;;;;;;;;;;;5049376;28;4517;-64
2023/04/04 02:52:30;;;;;;;;;;;;;;;;;;5033405;28;1785;-64
2023/04/04 02:54:55;;;;;;;;;;;;;;;;;;5051642;28;4568;-64
2023/04/04 02:57:20;;;;;;;;;;;;;;;;;;5051344;28;4460;-64
2023/04/04 02:59:45;;;;;;;;;;;;;;;;;;5050221;28;4455;-64
2023/04/04 03:02:11;;;;;;;;;;;;;;;;;;5042246;28;5054;-64
2023/04/04 03:04:36;;;;;;;;;;;;;;;;;;5074079;28;2371;-64
2023/04/04 03:07:02;;;;;;;;;;;;;;;;;;5038085;28;5070;-64
2023/04/04 03:09:27;;;;;;;;;;;;;;;;;;5042871;28;4489;-64
2023/04/04 03:11:53;;;;;;;;;;;;;;;;;;5051805;28;4526;-64
2023/04/04 03:14:18;;;;;;;;;;;;;;;;;;5051145;28;4566;-64
2023/04/04 03:16:44;;;;;;;;;;;;;;;;;;5050152;28;1152;-64
2023/04/04 03:19:09;;;;;;;;;;;;;;;;;;5039761;28;4767;-64
2023/04/04 03:21:34;;;;;;;;;;;;;;;;;;5051322;28;4985;-64
2023/04/04 03:23:59;;;;;;;;;;;;;;;;;;5050926;28;5083;-64
2023/04/04 03:26:27;;;;;;;;;;;;;;;;;;5048982;28;4533;-64
2023/04/04 03:28:52;;;;;;;;;;;;;;;;;;5042601;28;3388;-64
2023/04/04 03:31:17;;;;;;;;;;;;;;;;;;5041094;28;4600;-64
2023/04/04 03:33:43;;;;;;;;;;;;;;;;;;5051087;28;4912;-64
2023/04/04 03:36:10;;;;;;;;;;;;;;;;;;5082015;28;4682;-64
2023/04/04 03:38:35;;;;;;;;;;;;;;;;;;5043690;28;4546;-64
2023/04/04 03:41:02;;;;;;;;;;;;;;;;;;5040708;28;3241;-64
2023/04/04 03:43:28;;;;;;;;;;;;;;;;;;5036840;28;4524;-64
2023/04/04 03:45:54;;;;;;;;;;;;;;;;;;5047512;28;4607;-64
2023/04/04 03:48:19;;;;;;;;;;;;;;;;;;5050629;28;4748;-64
2023/04/04 03:50:44;;;;;;;;;;;;;;;;;;5050803;28;4412;-64
2023/04/04 03:53:10;;;;;;;;;;;;;;;;;;5050881;28;4475;-63
2023/04/04 03:55:37;;;;;;;;;;;;;;;;;;5051554;28;1073;-64
2023/04/04 03:58:02;;;;;;;;;;;;;;;;;;5081968;28;4488;-64
2023/04/04 04:00:28;;;;;;;;;;;;;;;;;;5037143;28;4635;-64
2023/04/04 04:02:53;;;;;;;;;;;;;;;;;;5050490;28;4687;-64
2023/04/04 04:05:18;;;;;;;;;;;;;;;;;;5042964;28;4984;-64
2023/04/04 04:07:44;;;;;;;;;;;;;;;;;;5044516;28;3428;-64
2023/04/04 04:10:09;;;;;;;;;;;;;;;;;;5049756;28;4544;-64
2023/04/04 04:12:35;;;;;;;;;;;;;;;;;;5050262;28;4624;-63
2023/04/04 04:15:00;;;;;;;;;;;;;;;;;;5049989;28;5139;-63
2023/04/04 04:17:26;;;;;;;;;;;;;;;;;;5042064;28;4888;-63
2023/04/04 04:19:51;;;;;;;;;;;;;;;;;;5045932;28;3214;-64
2023/04/04 04:22:16;;;;;;;;;;;;;;;;;;5043651;28;4951;-64
2023/04/04 04:24:41;;;;;;;;;;;;;;;;;;5048027;28;4486;-64
2023/04/04 04:27:07;;;;;;;;;;;;;;;;;;5046011;28;4694;-64
2023/04/04 04:29:32;;;;;;;;;;;;;;;;;;5046252;28;4654;-64
2023/04/04 04:31:57;;;;;;;;;;;;;;;;;;5045928;28;3063;-64
2023/04/04 04:34:23;;;;;;;;;;;;;;;;;;5049865;28;4405;-64
2023/04/04 04:36:48;;;;;;;;;;;;;;;;;;5036476;28;4741;-64
2023/04/04 04:39:13;;;;;;;;;;;;;;;;;;5030826;28;4784;-64
2023/04/04 04:41:39;;;;;;;;;;;;;;;;;;5038217;28;4534;-64
2023/04/04 04:44:04;;;;;;;;;;;;;;;;;;5040106;28;4471;-63
2023/04/04 04:46:30;;;;;;;;;;;;;;;;;;5050045;28;1194;-65
2023/04/04 04:48:55;;;;;;;;;;;;;;;;;;5032659;28;4700;-64
2023/04/04 04:51:21;;;;;;;;;;;;;;;;;;5074028;28;4678;-64
2023/04/04 04:53:46;;;;;;;;;;;;;;;;;;5048039;28;4503;-64
2023/04/04 04:56:11;;;;;;;;;;;;;;;;;;5049049;28;4696;-63
2023/04/04 04:58:36;;;;;;;;;;;;;;;;;;5050123;28;1056;-63
2023/04/04 05:01:02;;;;;;;;;;;;;;;;;;5044380;28;4666;-62
2023/04/04 05:03:27;;;;;;;;;;;;;;;;;;5060948;28;5042;-61
2023/04/04 05:05:52;;;;;;;;;;;;;;;;;;5040853;28;5104;-60
2023/04/04 05:08:17;;;;;;;;;;;;;;;;;;5043920;28;4874;-63
2023/04/04 05:10:43;;;;;;;;;;;;;;;;;;5043700;28;3140;-61
2023/04/04 05:13:08;;;;;;;;;;;;;;;;;;5071887;28;4494;-59
2023/04/04 05:15:34;;;;;;;;;;;;;;;;;;5038496;28;4743;-63
2023/04/04 05:17:59;;;;;;;;;;;;;;;;;;5038425;28;4522;-60
2023/04/04 05:20:24;;;;;;;;;;;;;;;;;;5047489;28;5293;-60
2023/04/04 05:22:50;;;;;;;;;;;;;;;;;;5037580;28;5007;-59
2023/04/04 05:25:15;;;;;;;;;;;;;;;;;;5048539;28;4428;-60
2023/04/04 05:27:41;;;;;;;;;;;;;;;;;;5048529;28;4450;-59
2023/04/04 05:30:06;;;;;;;;;;;;;;;;;;5047645;28;5010;-60
2023/04/04 05:32:32;;;;;;;;;;;;;;;;;;5048903;28;4483;-59
2023/04/04 05:34:57;;;;;;;;;;;;;;;;;;5081511;28;1217;-59
2023/04/04 05:37:22;;;;;;;;;;;;;;;;;;5032576;28;4589;-58
2023/04/04 05:39:48;;;;;;;;;;;;;;;;;;5036699;28;5081;-60
2023/04/04 05:42:13;;;;;;;;;;;;;;;;;;5047009;28;5000;-62
2023/04/04 05:44:38;;;;;;;;;;;;;;;;;;5048442;28;4925;-60
2023/04/04 05:47:04;;;;;;;;;;;;;;;;;;5047888;28;4474;-60
2023/04/04 05:49:29;;;;;;;;;;;;;;;;;;5040277;28;3465;-60
2023/04/04 05:51:57;;;;;;;;;;;;;;;;;;5037048;28;4396;-59
2023/04/04 05:54:23;;;;;;;;;;;;;;;;;;5036695;28;4696;-60
2023/04/04 05:56:48;;;;;;;;;;;;;;;;;;5028793;28;4572;-60
2023/04/04 05:59:13;;;;;;;;;;;;;;;;;;5028587;28;5172;-62
2023/04/04 06:01:39;;;;;;;;;;;;;;;;;;5029306;28;1938;-59
2023/04/04 06:04:05;;;;;;;;;;;;;;;;;;5028686;28;4639;-60
2023/04/04 06:06:30;;;;;;;;;;;;;;;;;;5041270;28;4464;-59
2023/04/04 06:08:55;;;;;;;;;;;;;;;;;;5052223;28;5037;-60
2023/04/04 06:11:21;;;;;;;;;;;;;;;;;;5052386;28;4413;-60
2023/04/04 06:13:47;;;;;;;;;;;;;;;;;;5052248;28;1175;-60
2023/04/04 06:16:12;;;;;;;;;;;;;;;;;;5043384;28;4923;-60
2023/04/04 06:18:37;;;;;;;;;;;;;;;;;;5068382;28;4633;-59
2023/04/04 06:21:02;;;;;;;;;;;;;;;;;;5051866;28;4658;-59
2023/04/04 06:23:28;;;;;;;;;;;;;;;;;;5032131;28;5175;-59
2023/04/04 06:25:53;;;;;;;;;;;;;;;;;;5050996;28;2763;-59
2023/04/04 06:28:18;;;;;;;;;;;;;;;;;;5051908;28;4412;-60
2023/04/04 06:30:44;;;;;;;;;;;;;;;;;;5051607;28;4654;-59
2023/04/04 06:33:09;;;;;;;;;;;;;;;;;;5051712;28;4648;-59
2023/04/04 06:35:35;;;;;;;;;;;;;;;;;;5049056;28;5043;-60
2023/04/04 06:38:00;;;;;;;;;;;;;;;;;;5032599;28;1078;-60
2023/04/04 06:40:25;;;;;;;;;;;;;;;;;;5031801;28;4421;-59
2023/04/04 06:42:51;;;;;;;;;;;;;;;;;;5032047;28;4415;-60
2023/04/04 06:45:16;;;;;;;;;;;;;;;;;;5047038;28;4610;-59
2023/04/04 06:47:42;;;;;;;;;;;;;;;;;;5032022;28;4668;-59
2023/04/04 06:50:07;;;;;;;;;;;;;;;;;;5045765;28;5199;-60
2023/04/04 06:52:33;;;;;;;;;;;;;;;;;;5052196;28;1331;-59
2023/04/04 06:54:58;;;;;;;;;;;;;;;;;;5083650;28;4660;-59
2023/04/04 06:57:23;;;;;;;;;;;;;;;;;;5051489;28;4518;-60
2023/04/04 06:59:49;;;;;;;;;;;;;;;;;;5051306;28;4435;-59
2023/04/04 07:02:15;;;;;;;;;;;;;;;;;;5051092;28;4495;-59
2023/04/04 07:04:40;;;;;;;;;;;;;;;;;;5051797;28;1104;-60
2023/04/04 07:07:06;;;;;;;;;;;;;;;;;;5035934;28;4535;-60
2023/04/04 07:09:31;;;;;;;;;;;;;;;;;;5036722;28;4718;-61
2023/04/04 07:11:56;;;;;;;;;;;;;;;;;;5051137;28;5002;-61
2023/04/04 07:14:23;;;;;;;;;;;;;;;;;;5051210;28;4487;-61
2023/04/04 07:16:49;;;;;;;;;;;;;;;;;;5049392;28;1361;-60
2023/04/04 07:19:14;;;;;;;;;;;;;;;;;;5050602;28;5016;-59
2023/04/04 07:21:40;;;;;;;;;;;;;;;;;;5044269;28;4665;-60
2023/04/04 07:24:05;;;;;;;;;;;;;;;;;;5049502;28;5090;-63
2023/04/04 07:26:32;;;;;;;;;;;;;;;;;;5050481;28;4980;-63
2023/04/04 07:28:57;;;;;;;;;;;;;;;;;;5050444;28;2974;-64
2023/04/04 07:31:23;;;;;;;;;;;;;;;;;;5050411;28;4444;-64
2023/04/04 07:33:48;;;;;;;;;;;;;;;;;;5050743;28;4942;-64
2023/04/04 07:36:13;;;;;;;;;;;;;;;;;;5042414;28;5077;-63
2023/04/04 07:38:38;;;;;;;;;;;;;;;;;;5043470;28;5002;-64
2023/04/04 07:41:04;;;;;;;;;;;;;;;;;;5041488;28;5466;-63
2023/04/04 07:43:30;;;;;;;;;;;;;;;;;;5048031;28;1622;-63
2023/04/04 07:45:55;;;;;;;;;;;;;;;;;;5048891;28;5062;-64
2023/04/04 07:48:21;;;;;;;;;;;;;;;;;;5047093;28;4455;-64
2023/04/04 07:50:46;;;;;;;;;;;;;;;;;;5048131;28;4485;-64
2023/04/04 07:53:11;;;;;;;;;;;;;;;;;;5048208;28;5003;-64
2023/04/04 07:55:36;;;;;;;;;;;;;;;;;;5047503;28;1467;-64
2023/04/04 07:58:02;;;;;;;;;;;;;;;;;;5046473;28;4497;-63
2023/04/04 08:00:27;;;;;;;;;;;;;;;;;;5047797;28;4920;-63
2023/04/04 08:02:53;;;;;;;;;;;;;;;;;;5046487;28;4464;-64
2023/04/04 08:05:18;;;;;;;;;;;;;;;;;;5048145;28;4459;-64
2023/04/04 08:07:43;;;;;;;;;;;;;;;;;;5049093;28;1689;-63
2023/04/04 08:10:09;;;;;;;;;;;;;;;;;;5047585;28;4521;-63
2023/04/04 08:12:34;;;;;;;;;;;;;;;;;;5047266;28;4649;-64
2023/04/04 08:15:00;;;;;;;;;;;;;;;;;;5047180;28;4637;-63
2023/04/04 08:17:26;;;;;;;;;;;;;;;;;;5047235;28;4557;-63
2023/04/04 08:19:51;;;;;;;;;;;;;;;;;;5047455;28;1760;-64
2023/04/04 08:22:17;;;;;;;;;;;;;;;;;;5045794;28;4801;-64
2023/04/04 08:24:43;;;;;;;;;;;;;;;;;;5046138;28;4514;-63
2023/04/04 08:27:08;;;;;;;;;;;;;;;;;;5046888;28;5019;-64
2023/04/04 08:29:34;;;;;;;;;;;;;;;;;;5046835;28;5150;-63
2023/04/04 08:32:00;;;;;;;;;;;;;;;;;;5079663;28;1486;-64
2023/04/04 08:34:25;;;;;;;;;;;;;;;;;;5046468;28;4475;-63
2023/04/04 08:36:50;;;;;;;;;;;;;;;;;;5045748;28;5155;-64
2023/04/04 08:39:16;;;;;;;;;;;;;;;;;;5045421;28;4610;-63
2023/04/04 08:41:42;;;;;;;;;;;;;;;;;;5046498;28;4630;-64
2023/04/04 08:44:07;;;;;;;;;;;;;;;;;;5046513;28;4644;-63
2023/04/04 08:46:32;;;;;;;;;;;;;;;;;;5045859;28;1701;-63
2023/04/04 08:48:59;;;;;;;;;;;;;;;;;;5046263;28;5061;-64
2023/04/04 08:51:25;;;;;;;;;;;;;;;;;;5047063;28;4445;-63
2023/04/04 08:53:50;;;;;;;;;;;;;;;;;;5079414;28;4659;-64
2023/04/04 08:56:15;;;;;;;;;;;;;;;;;;5046940;28;4698;-63
2023/04/04 08:58:40;;;;;;;;;;;;;;;;;;5045272;28;1452;-63
2023/04/04 09:01:06;;;;;;;;;;;;;;;;;;5046682;28;4645;-63
2023/04/04 09:03:33;;;;;;;;;;;;;;;;;;5075530;28;4438;-63
2023/04/04 09:05:58;;;;;;;;;;;;;;;;;;5045475;28;4440;-64
2023/04/04 09:08:24;;;;;;;;;;;;;;;;;;5046482;28;4461;-63
2023/04/04 09:10:49;;;;;;;;;;;;;;;;;;5048034;28;1351;-63
2023/04/04 09:13:14;;;;;;;;;;;;;;;;;;5046220;28;4626;-63
2023/04/04 09:15:41;;;;;;;;;;;;;;;;;;5045200;28;4533;-63
2023/04/04 09:18:06;;;;;;;;;;;;;;;;;;5046734;28;5055;-63
2023/04/04 09:20:35;;;;;;;;;;;;;;;;;;5046132;28;4750;-63
2023/04/04 09:23:00;;;;;;;;;;;;;;;;;;5045802;28;4876;-63
2023/04/04 09:25:26;;;;;;;;;;;;;;;;;;5042375;28;4675;-63
2023/04/04 09:27:52;;;;;;;;;;;;;;;;;;5045612;28;5096;-63
2023/04/04 09:30:17;;;;;;;;;;;;;;;;;;5047272;28;4504;-63
2023/04/04 09:32:42;;;;;;;;;;;;;;;;;;5043251;28;4463;-63
2023/04/04 09:35:09;;;;;;;;;;;;;;;;;;5078430;28;4700;-62
2023/04/04 09:37:34;;;;;;;;;;;;;;;;;;5077277;28;2117;-63
2023/04/04 09:40:00;;;;;;;;;;;;;;;;;;5047909;28;4502;-63
2023/04/04 09:42:25;;;;;;;;;;;;;;;;;;5048978;28;4520;-63
2023/04/04 09:44:53;;;;;;;;;;;;;;;;;;5049770;28;4584;-63
2023/04/04 09:47:22;;;;;;;;;;;;;;;;;;5045322;28;4631;-63
2023/04/04 09:49:48;;;;;;;;;;;;;;;;;;5083560;28;1510;-63
2023/04/04 09:52:17;;;;;;;;;;;;;;;;;;5048705;28;4494;-62
2023/04/04 09:54:42;;;;;;;;;;;;;;;;;;5048896;28;4614;-63
2023/04/04 09:57:08;;;;;;;;;;;;;;;;;;5083404;28;4748;-63
2023/04/04 09:59:33;;;;;;;;;;;;;;;;;;5043083;28;5340;-63
2023/04/04 10:02:00;;;;;;;;;;;;;;;;;;5079781;28;1914;-63
2023/04/04 10:04:27;;;;;;;;;;;;;;;;;;5051176;28;4803;-63
2023/04/04 10:06:52;;;;;;;;;;;;;;;;;;5048873;28;4621;-63
2023/04/04 10:09:18;;;;;;;;;;;;;;;;;;5064829;28;4688;-63
2023/04/04 10:11:44;;;;;;;;;;;;;;;;;;5050221;28;5003;-63
2023/04/04 10:14:09;;;;;;;;;;;;;;;;;;5083600;28;4968;-63
2023/04/04 10:16:36;;;;;;;;;;;;;;;;;;5049372;28;1528;-63
2023/04/04 10:19:02;;;;;;;;;;;;;;;;;;5050251;28;4974;-63
2023/04/04 10:21:28;;;;;;;;;;;;;;;;;;5048526;28;4697;-63
2023/04/04 10:23:53;;;;;;;;;;;;;;;;;;5082587;28;4844;-63
2023/04/04 10:26:18;;;;;;;;;;;;;;;;;;5048465;28;5598;-63
2023/04/04 10:28:44;;;;;;;;;;;;;;;;;;5050915;28;1476;-63
2023/04/04 10:31:12;;;;;;;;;;;;;;;;;;5048108;28;4440;-63
2023/04/04 10:33:49;;;;;;;;;;;;;;;;;;5049165;28;4607;-63
2023/04/04 10:36:15;;;;;;;;;;;;;;;;;;5049116;28;4679;-63
2023/04/04 10:38:42;;;;;;;;;;;;;;;;;;5050626;28;4617;-63
2023/04/04 10:41:07;;;;;;;;;;;;;;;;;;5046301;28;4569;-62
2023/04/04 10:43:33;;;;;;;;;;;;;;;;;;5083155;28;1113;-63
2023/04/04 10:46:00;;;;;;;;;;;;;;;;;;5046781;28;4855;-63
2023/04/04 10:48:25;;;;;;;;;;;;;;;;;;5046138;28;4593;-63
2023/04/04 10:50:50;;;;;;;;;;;;;;;;;;5053867;28;4482;-63
2023/04/04 10:53:16;;;;;;;;;;;;;;;;;;5044699;28;5076;-63
2023/04/04 10:55:43;;;;;;;;;;;;;;;;;;5079952;28;1579;-62
2023/04/04 10:58:09;;;;;;;;;;;;;;;;;;5042332;28;5123;-63
2023/04/04 11:00:47;;;;;;;;;;;;;;;;;;5041112;28;4964;-63
2023/04/04 11:03:13;;;;;;;;;;;;;;;;;;5081518;28;4439;-63
2023/04/04 11:05:50;;;;;;;;;;;;;;;;;;5045412;28;4559;-63
2023/04/04 11:08:21;;;;;;;;;;;;;;;;;;5046968;28;4763;-62
2023/04/04 11:10:47;;;;;;;;;;;;;;;;;;5047781;28;1644;-63
2023/04/04 11:13:21;;;;;;;;;;;;;;;;;;5047653;28;5132;-63
2023/04/04 11:15:52;;;;;;;;;;;;;;;;;;5045129;28;4440;-63
2023/04/04 11:18:20;;;;;;;;;;;;;;;;;;5048408;28;4467;-63
2023/04/04 11:20:46;;;;;;;;;;;;;;;;;;5048692;28;5031;-63
2023/04/04 11:23:21;;;;;;;;;;;;;;;;;;5049457;28;5032;-62
2023/04/04 11:25:53;;;;;;;;;;;;;;;;;;5047349;28;1404;-62
2023/04/04 11:28:33;;;;;;;;;;;;;;;;;;5047359;28;4452;-66
2023/04/04 11:31:17;;;;;;;;;;;;;;;;;;5048392;28;4976;-62
2023/04/04 11:34:01;;;;;;;;;;;;;;;;;;5050027;28;4618;-61
2023/04/04 11:36:35;;;;;;;;;;;;;;;;;;5046366;28;5015;-63
2023/04/04 11:39:27;;;;;;;;;;;;;;;;;;5049464;28;4465;-63
2023/04/04 11:41:58;;;;;;;;;;;;;;;;;;5049640;28;4968;-61
2023/04/04 11:44:24;;;;;;;;;;;;;;;;;;5050478;28;5071;-64
2023/04/04 11:47:22;;;;;;;;;;;;;;;;;;5050016;28;1089;-61
2023/04/04 11:49:47;;;;;;;;;;;;;;;;;;5018285;28;5067;-62
2023/04/04 11:52:14;;;;;;;;;;;;;;;;;;5049073;28;4459;-61
2023/04/04 11:54:39;;;;;;;;;;;;;;;;;;5050252;28;5428;-63
2023/04/04 11:57:05;;;;;;;;;;;;;;;;;;5049465;28;4460;-62
2023/04/04 11:59:30;;;;;;;;;;;;;;;;;;5065364;28;4512;-62
2023/04/04 12:01:56;;;;;;;;;;;;;;;;;;5048718;28;1918;-63
2023/04/04 12:04:21;;;;;;;;;;;;;;;;;;5047371;28;4620;-62
2023/04/04 12:06:50;;;;;;;;;;;;;;;;;;5037023;28;4854;-63
2023/04/04 12:09:17;;;;;;;;;;;;;;;;;;5042699;28;4983;-61
2023/04/04 12:11:43;;;;;;;;;;;;;;;;;;5080268;28;4522;-61
2023/04/04 12:14:18;;;;;;;;;;;;;;;;;;5079614;28;4460;-63
2023/04/04 12:16:44;;;;;;;;;;;;;;;;;;5047832;28;1088;-61
2023/04/04 12:19:09;;;;;;;;;;;;;;;;;;5048910;28;4446;-61
2023/04/04 12:21:35;;;;;;;;;;;;;;;;;;5048004;28;4587;-63
2023/04/04 12:24:00;;;;;;;;;;;;;;;;;;5049622;28;5070;-60
2023/04/04 12:26:28;;;;;;;;;;;;;;;;;;5047903;28;5216;-62
2023/04/04 12:28:55;;;;;;;;;;;;;;;;;;5048008;28;1148;-62
2023/04/04 12:31:21;;;;;;;;;;;;;;;;;;5047273;28;5542;-63
2023/04/04 12:33:46;;;;;;;;;;;;;;;;;;5047898;28;4672;-61
2023/04/04 12:36:11;;;;;;;;;;;;;;;;;;5076433;28;4611;-64
2023/04/04 12:38:56;;;;;;;;;;;;;;;;;;5070752;28;4636;-64
2023/04/04 12:41:22;;;;;;;;;;;;;;;;;;5040383;28;5185;-63
2023/04/04 12:43:47;;;;;;;;;;;;;;;;;;5049471;28;1201;-64
2023/04/04 12:46:12;;;;;;;;;;;;;;;;;;5048959;28;4423;-64
2023/04/04 12:48:38;;;;;;;;;;;;;;;;;;5048507;28;4649;-62
2023/04/04 12:51:03;;;;;;;;;;;;;;;;;;5048825;28;4428;-61
2023/04/04 12:53:29;;;;;;;;;;;;;;;;;;5048411;28;4984;-61
2023/04/04 12:55:54;;;;;;;;;;;;;;;;;;5049135;28;1088;-64
2023/04/04 12:58:21;;;;;;;;;;;;;;;;;;5080915;28;4981;-62
2023/04/04 13:00:47;;;;;;;;;;;;;;;;;;5048787;28;4440;-64
2023/04/04 13:03:13;;;;;;;;;;;;;;;;;;5080713;28;4414;-64
2023/04/04 13:05:39;;;;;;;;;;;;;;;;;;5047445;28;4442;-62
2023/04/04 13:08:05;;;;;;;;;;;;;;;;;;5049372;28;1375;-61
2023/04/04 13:10:31;;;;;;;;;;;;;;;;;;5048627;28;5214;-62
2023/04/04 13:12:59;;;;;;;;;;;;;;;;;;5046857;28;4925;-63
2023/04/04 13:15:43;;;;;;;;;;;;;;;;;;5079790;28;4606;-64
2023/04/04 13:18:13;;;;;;;;;;;;;;;;;;5048257;28;4671;-62
2023/04/04 13:20:38;;;;;;;;;;;;;;;;;;5048528;28;4751;-63
2023/04/04 13:23:03;;;;;;;;;;;;;;;;;;5048729;28;4905;-63
2023/04/04 13:25:28;;;;;;;;;;;;;;;;;;5047262;28;4680;-62
2023/04/04 13:27:54;;;;;;;;;;;;;;;;;;5048895;28;5181;-61
2023/04/04 13:30:20;;;;;;;;;;;;;;;;;;5048637;28;4998;-61
2023/04/04 13:32:45;;;;;;;;;;;;;;;;;;5048705;28;4479;-61
2023/04/04 13:35:11;;;;;;;;;;;;;;;;;;5048014;28;4842;-61
2023/04/04 13:37:36;;;;;;;;;;;;;;;;;;5046646;28;1730;-61
2023/04/04 13:40:01;;;;;;;;;;;;;;;;;;5048400;28;4532;-64
2023/04/04 13:42:30;;;;;;;;;;;;;;;;;;5047959;28;4884;-63
2023/04/04 13:44:55;;;;;;;;;;;;;;;;;;5045878;28;4972;-63
2023/04/04 13:47:21;;;;;;;;;;;;;;;;;;5040039;28;4746;-63
2023/04/04 13:49:46;;;;;;;;;;;;;;;;;;5048431;28;1642;-63
2023/04/04 13:52:12;;;;;;;;;;;;;;;;;;5047873;28;4900;-64
2023/04/04 13:54:37;;;;;;;;;;;;;;;;;;5079967;28;4594;-66
2023/04/04 13:57:02;;;;;;;;;;;;;;;;;;5047683;28;5054;-63
2023/04/04 13:59:27;;;;;;;;;;;;;;;;;;5047572;28;4476;-62
2023/04/04 14:01:53;;;;;;;;;;;;;;;;;;5047937;28;1973;-64
2023/04/04 14:04:18;;;;;;;;;;;;;;;;;;5047698;28;5093;-68
2023/04/04 14:06:43;;;;;;;;;;;;;;;;;;5046500;28;5125;-65
2023/04/04 14:09:09;;;;;;;;;;;;;;;;;;5047648;28;4862;-65
2023/04/04 14:11:34;;;;;;;;;;;;;;;;;;5047992;28;4668;-65
2023/04/04 14:13:59;;;;;;;;;;;;;;;;;;5048198;28;1144;-64
2023/04/04 14:16:25;;;;;;;;;;;;;;;;;;5046413;28;4668;-65
2023/04/04 14:18:50;;;;;;;;;;;;;;;;;;5047734;28;4927;-64
2023/04/04 14:21:16;;;;;;;;;;;;;;;;;;5047930;28;4472;-64
2023/04/04 14:23:41;;;;;;;;;;;;;;;;;;5047298;28;5165;-65
2023/04/04 14:26:06;;;;;;;;;;;;;;;;;;5047670;28;4528;-66
2023/04/04 14:28:32;;;;;;;;;;;;;;;;;;5084083;28;1100;-63
2023/04/04 14:30:57;;;;;;;;;;;;;;;;;;5045692;28;5038;-64
2023/04/04 14:33:22;;;;;;;;;;;;;;;;;;5079619;28;5146;-66
2023/04/04 14:35:48;;;;;;;;;;;;;;;;;;5034097;28;5783;-69
2023/04/04 14:38:13;;;;;;;;;;;;;;;;;;5047120;28;4996;-64
2023/04/04 14:40:38;;;;;;;;;;;;;;;;;;5049613;28;3309;-64
2023/04/04 14:43:04;;;;;;;;;;;;;;;;;;5049177;28;4973;-65
2023/04/04 14:45:30;;;;;;;;;;;;;;;;;;5050591;28;4695;-61
2023/04/04 14:47:56;;;;;;;;;;;;;;;;;;5050710;28;5086;-62
2023/04/04 14:50:21;;;;;;;;;;;;;;;;;;5050626;28;5170;-65
2023/04/04 14:52:49;;;;;;;;;;;;;;;;;;5043587;28;3255;-63
2023/04/04 14:55:15;;;;;;;;;;;;;;;;;;5041336;28;5877;-65
2023/04/04 14:57:40;;;;;;;;;;;;;;;;;;5036561;28;4511;-63
2023/04/04 15:00:06;;;;;;;;;;;;;;;;;;5044744;28;4776;-63
2023/04/04 15:02:31;;;;;;;;;;;;;;;;;;5042671;28;5103;-66
2023/04/04 15:04:56;;;;;;;;;;;;;;;;;;5035742;28;3199;-63
2023/04/04 15:07:23;;;;;;;;;;;;;;;;;;5043694;28;4432;-61
2023/04/04 15:09:48;;;;;;;;;;;;;;;;;;5040214;28;5438;-71
2023/04/04 15:12:13;;;;;;;;;;;;;;;;;;5047900;28;4591;-64
2023/04/04 15:14:39;;;;;;;;;;;;;;;;;;5048487;28;5319;-63
2023/04/04 15:17:04;;;;;;;;;;;;;;;;;;5044513;28;3189;-62
2023/04/04 15:19:29;;;;;;;;;;;;;;;;;;5049103;28;5046;-62
2023/04/04 15:21:55;;;;;;;;;;;;;;;;;;5045268;28;4519;-64
2023/04/04 15:24:21;;;;;;;;;;;;;;;;;;5041420;28;5043;-65
2023/04/04 15:26:46;;;;;;;;;;;;;;;;;;5045097;28;4504;-64
2023/04/04 15:29:13;;;;;;;;;;;;;;;;;;5049830;28;4512;-63
2023/04/04 15:31:38;;;;;;;;;;;;;;;;;;5048588;28;3757;-62
2023/04/04 15:34:04;;;;;;;;;;;;;;;;;;5049980;28;4661;-64
2023/04/04 15:36:32;;;;;;;;;;;;;;;;;;5043087;28;5177;-65
2023/04/04 15:38:57;;;;;;;;;;;;;;;;;;5032691;28;4970;-66
2023/04/04 15:41:22;;;;;;;;;;;;;;;;;;5046652;28;4551;-66
2023/04/04 15:43:48;;;;;;;;;;;;;;;;;;5046537;28;3404;-65
2023/04/04 15:46:13;;;;;;;;;;;;;;;;;;5049843;28;4653;-65
2023/04/04 15:48:38;;;;;;;;;;;;;;;;;;5039853;28;4506;-66
2023/04/04 15:51:03;;;;;;;;;;;;;;;;;;5044855;28;4526;-65
2023/04/04 15:53:29;;;;;;;;;;;;;;;;;;5050837;28;4518;-66
2023/04/04 15:55:55;;;;;;;;;;;;;;;;;;5046936;28;3656;-63
2023/04/04 15:58:22;;;;;;;;;;;;;;;;;;5034982;28;4692;-63
2023/04/04 16:00:47;;;;;;;;;;;;;;;;;;5039423;28;4843;-63
2023/04/04 16:03:13;;;;;;;;;;;;;;;;;;5072835;28;4531;-64
2023/04/04 16:05:38;;;;;;;;;;;;;;;;;;5048781;28;4484;-62
2023/04/04 16:08:03;;;;;;;;;;;;;;;;;;5042082;28;3291;-62
2023/04/04 16:10:28;;;;;;;;;;;;;;;;;;5039944;28;4925;-68
2023/04/04 16:12:54;;;;;;;;;;;;;;;;;;5048405;28;4950;-68
2023/04/04 16:15:19;;;;;;;;;;;;;;;;;;5048304;28;5393;-68
2023/04/04 16:17:45;;;;;;;;;;;;;;;;;;5045637;28;4453;-68
2023/04/04 16:20:11;;;;;;;;;;;;;;;;;;5038728;28;5033;-66
2023/04/04 16:22:36;;;;;;;;;;;;;;;;;;5042901;28;4996;-68
2023/04/04 16:25:01;;;;;;;;;;;;;;;;;;5046864;28;4432;-69
2023/04/04 16:27:26;;;;;;;;;;;;;;;;;;5040968;28;4575;-68
2023/04/04 16:29:52;;;;;;;;;;;;;;;;;;5046077;28;4471;-68
2023/04/04 16:32:17;;;;;;;;;;;;;;;;;;5049248;28;4683;-66
2023/04/04 16:34:43;;;;;;;;;;;;;;;;;;5048998;28;1373;-68
2023/04/04 16:37:10;;;;;;;;;;;;;;;;;;5037262;28;4524;-66
2023/04/04 16:39:35;;;;;;;;;;;;;;;;;;5043400;28;5021;-66
2023/04/04 16:42:01;;;;;;;;;;;;;;;;;;5048376;28;4486;-68
2023/04/04 16:44:26;;;;;;;;;;;;;;;;;;5048624;28;4616;-67
2023/04/04 16:46:51;;;;;;;;;;;;;;;;;;5049409;28;1315;-67
2023/04/04 16:49:19;;;;;;;;;;;;;;;;;;5049027;28;4984;-67
2023/04/04 16:51:45;;;;;;;;;;;;;;;;;;5047249;28;4600;-67
2023/04/04 16:54:11;;;;;;;;;;;;;;;;;;5048299;28;5151;-69
2023/04/04 16:56:36;;;;;;;;;;;;;;;;;;5032604;28;4412;-67